Terminal Aerodrome Forecast
Issued by NWS Goodland, KS

Home | Current Version | Previous Version | Text Only | Print | Product List | Glossary Off
Versions: 1 2 3 4 5 6 7 8 9 10 11 12 13 14

000
FTUS43 KGLD 211203 AAA
TAFGLD
TAF AMD
KGLD 211203Z 2112/2212 34006KT P6SM SCT120
     FM211700 35008KT P6SM BKN120
     FM220200 VRB05KT P6SM FEW090 SCT120=

USA.gov is the U.S. government's official web portal to all federal, state and local government web resources and services.